Terminal Aerodrome Forecast
Issued by NWS

Home | Current Version | Previous Version | Text Only | Print | Product List | Glossary On
Versions: 1 2 3 4 5 6 7 8 9 10 11 12 13
000
FTUS42 KTAE 222335
TAFABY
TAF
KABY 222335Z 2300/2324 12007KT P6SM VCSH SCT050
     FM230700 13007KT 6SM -TSRA OVC025CB
      TEMPO 2312/2316 VRB15G25KT 2SM TSRA BKN012CB OVC040
     FM231600 22009KT 6SM -TSRA BKN025CB OVC070
     FM231900 29011KT P6SM SCT030=

USA.gov is the U.S. government's official web portal to all federal, state and local government web resources and services.